sensor_id;sensor_type;location;lat;lon;timestamp;pressure;altitude;pressure_sealevel;temperature
77599;BMP280;66758;52.078;5.070;2023-07-16T00:00:59;100962.75;;;17.20
77599;BMP280;66758;52.078;5.070;2023-07-16T00:03:24;100954.44;;;17.13
77599;BMP280;66758;52.078;5.070;2023-07-16T00:05:50;100965.53;;;17.17
77599;BMP280;66758;52.078;5.070;2023-07-16T00:08:16;100967.88;;;17.15
77599;BMP280;66758;52.078;5.070;2023-07-16T00:10:41;100957.22;;;17.09
77599;BMP280;66758;52.078;5.070;2023-07-16T00:13:07;100952.47;;;17.21
77599;BMP280;66758;52.078;5.070;2023-07-16T00:15:32;100954.03;;;17.15
77599;BMP280;66758;52.078;5.070;2023-07-16T00:17:58;100959.59;;;17.22
77599;BMP280;66758;52.078;5.070;2023-07-16T00:20:23;100954.84;;;17.11
77599;BMP280;66758;52.078;5.070;2023-07-16T00:22:49;100961.16;;;17.08
77599;BMP280;66758;52.078;5.070;2023-07-16T00:25:15;100954.44;;;17.17
77599;BMP280;66758;52.078;5.070;2023-07-16T00:27:40;100960.78;;;17.03
77599;BMP280;66758;52.078;5.070;2023-07-16T00:30:07;100955.25;;;16.99
77599;BMP280;66758;52.078;5.070;2023-07-16T00:32:33;100969.88;;;17.03
77599;BMP280;66758;52.078;5.070;2023-07-16T00:34:59;100971.47;;;17.04
77599;BMP280;66758;52.078;5.070;2023-07-16T00:37:24;100963.97;;;17.01
77599;BMP280;66758;52.078;5.070;2023-07-16T00:39:49;100958.41;;;17.01
77599;BMP280;66758;52.078;5.070;2023-07-16T00:42:15;100972.25;;;16.98
77599;BMP280;66758;52.078;5.070;2023-07-16T00:44:40;100975.81;;;16.98
77599;BMP280;66758;52.078;5.070;2023-07-16T00:47:06;100969.47;;;17.05
77599;BMP280;66758;52.078;5.070;2023-07-16T00:49:31;100980.94;;;17.03
77599;BMP280;66758;52.078;5.070;2023-07-16T00:51:58;100982.16;;;17.06
77599;BMP280;66758;52.078;5.070;2023-07-16T00:54:25;100977.81;;;17.01
77599;BMP280;66758;52.078;5.070;2023-07-16T00:56:51;100975.41;;;17.00
77599;BMP280;66758;52.078;5.070;2023-07-16T00:59:17;100980.56;;;17.05
77599;BMP280;66758;52.078;5.070;2023-07-16T01:01:42;100980.94;;;17.07
77599;BMP280;66758;52.078;5.070;2023-07-16T01:04:08;100966.72;;;16.94
77599;BMP280;66758;52.078;5.070;2023-07-16T01:06:41;100975.41;;;17.21
77599;BMP280;66758;52.078;5.070;2023-07-16T01:09:15;100970.66;;;17.15
77599;BMP280;66758;52.078;5.070;2023-07-16T01:11:43;100964.31;;;17.07
77599;BMP280;66758;52.078;5.070;2023-07-16T01:14:09;100982.91;;;17.03
77599;BMP280;66758;52.078;5.070;2023-07-16T01:16:35;100974.59;;;17.03
77599;BMP280;66758;52.078;5.070;2023-07-16T01:19:01;100963.56;;;16.96
77599;BMP280;66758;52.078;5.070;2023-07-16T01:21:31;100977.00;;;17.01
77599;BMP280;66758;52.078;5.070;2023-07-16T01:31:55;100974.63;;;16.96
77599;BMP280;66758;52.078;5.070;2023-07-16T01:34:21;100973.81;;;16.92
77599;BMP280;66758;52.078;5.070;2023-07-16T01:36:47;100970.28;;;16.91
77599;BMP280;66758;52.078;5.070;2023-07-16T01:39:14;100966.72;;;16.98
77599;BMP280;66758;52.078;5.070;2023-07-16T01:41:40;100970.66;;;16.93
77599;BMP280;66758;52.078;5.070;2023-07-16T01:44:05;100969.09;;;16.89
77599;BMP280;66758;52.078;5.070;2023-07-16T01:46:32;100978.56;;;16.88
77599;BMP280;66758;52.078;5.070;2023-07-16T01:48:57;100982.13;;;16.85
77599;BMP280;66758;52.078;5.070;2023-07-16T01:51:23;100981.75;;;16.86
77599;BMP280;66758;52.078;5.070;2023-07-16T01:53:48;100981.72;;;16.83
77599;BMP280;66758;52.078;5.070;2023-07-16T01:56:13;100979.75;;;16.76
77599;BMP280;66758;52.078;5.070;2023-07-16T01:58:39;100985.69;;;16.89
77599;BMP280;66758;52.078;5.070;2023-07-16T02:01:04;100990.03;;;16.83
77599;BMP280;66758;52.078;5.070;2023-07-16T02:03:30;100988.03;;;16.73
77599;BMP280;66758;52.078;5.070;2023-07-16T02:05:55;100985.28;;;16.80
77599;BMP280;66758;52.078;5.070;2023-07-16T02:08:21;100992.81;;;16.79
77599;BMP280;66758;52.078;5.070;2023-07-16T02:10:49;100982.91;;;16.78
77599;BMP280;66758;52.078;5.070;2023-07-16T02:13:15;100985.28;;;16.65
77599;BMP280;66758;52.078;5.070;2023-07-16T02:15:42;100988.44;;;16.60
77599;BMP280;66758;52.078;5.070;2023-07-16T02:18:08;100984.88;;;16.63
77599;BMP280;66758;52.078;5.070;2023-07-16T02:20:33;100984.88;;;16.63
77599;BMP280;66758;52.078;5.070;2023-07-16T02:22:59;100980.53;;;16.69
77599;BMP280;66758;52.078;5.070;2023-07-16T02:25:25;100984.50;;;16.65
77599;BMP280;66758;52.078;5.070;2023-07-16T02:27:51;100972.63;;;16.64
77599;BMP280;66758;52.078;5.070;2023-07-16T02:30:16;100984.06;;;16.66
77599;BMP280;66758;52.078;5.070;2023-07-16T02:32:42;100982.09;;;16.67
77599;BMP280;66758;52.078;5.070;2023-07-16T02:35:07;100986.84;;;16.66
77599;BMP280;66758;52.078;5.070;2023-07-16T02:37:33;100973.00;;;16.66
77599;BMP280;66758;52.078;5.070;2023-07-16T02:39:58;100987.25;;;16.72
77599;BMP280;66758;52.078;5.070;2023-07-16T02:42:24;100984.88;;;16.71
77599;BMP280;66758;52.078;5.070;2023-07-16T02:44:49;100985.66;;;16.67
77599;BMP280;66758;52.078;5.070;2023-07-16T02:47:15;100981.72;;;16.65
77599;BMP280;66758;52.078;5.070;2023-07-16T02:49:40;100986.84;;;16.66
77599;BMP280;66758;52.078;5.070;2023-07-16T02:52:06;100978.94;;;16.61
77599;BMP280;66758;52.078;5.070;2023-07-16T02:54:32;100982.91;;;16.71
77599;BMP280;66758;52.078;5.070;2023-07-16T02:56:58;100993.16;;;16.60
77599;BMP280;66758;52.078;5.070;2023-07-16T02:59:23;100984.84;;;16.56
77599;BMP280;66758;52.078;5.070;2023-07-16T03:01:49;100993.13;;;16.56
77599;BMP280;66758;52.078;5.070;2023-07-16T03:04:15;100980.53;;;16.55
77599;BMP280;66758;52.078;5.070;2023-07-16T03:06:40;100981.31;;;16.56
77599;BMP280;66758;52.078;5.070;2023-07-16T03:09:06;100982.88;;;16.53
77599;BMP280;66758;52.078;5.070;2023-07-16T03:11:31;100980.50;;;16.59
77599;BMP280;66758;52.078;5.070;2023-07-16T03:13:57;100978.53;;;16.52
77599;BMP280;66758;52.078;5.070;2023-07-16T03:16:22;100979.34;;;16.60
77599;BMP280;66758;52.078;5.070;2023-07-16T03:18:47;100997.91;;;16.59
77599;BMP280;66758;52.078;5.070;2023-07-16T03:21:13;100995.94;;;16.60
77599;BMP280;66758;52.078;5.070;2023-07-16T03:23:38;100982.91;;;16.60
77599;BMP280;66758;52.078;5.070;2023-07-16T03:26:04;101001.44;;;16.56
77599;BMP280;66758;52.078;5.070;2023-07-16T03:28:29;100994.38;;;16.66
77599;BMP280;66758;52.078;5.070;2023-07-16T03:30:55;100998.31;;;16.72
77599;BMP280;66758;52.078;5.070;2023-07-16T03:33:20;100988.84;;;16.66
77599;BMP280;66758;52.078;5.070;2023-07-16T03:35:48;101004.66;;;16.69
77599;BMP280;66758;52.078;5.070;2023-07-16T03:38:14;100992.78;;;16.68
77599;BMP280;66758;52.078;5.070;2023-07-16T03:40:42;101011.75;;;16.70
77599;BMP280;66758;52.078;5.070;2023-07-16T03:43:08;101015.72;;;16.83
77599;BMP280;66758;52.078;5.070;2023-07-16T03:45:33;101022.84;;;16.81
77599;BMP280;66758;52.078;5.070;2023-07-16T03:47:59;101023.25;;;16.76
77599;BMP280;66758;52.078;5.070;2023-07-16T03:50:24;101024.00;;;16.73
77599;BMP280;66758;52.078;5.070;2023-07-16T03:52:50;101033.09;;;16.69
77599;BMP280;66758;52.078;5.070;2023-07-16T03:55:15;101032.31;;;16.69
77599;BMP280;66758;52.078;5.070;2023-07-16T03:57:42;101034.66;;;16.60
77599;BMP280;66758;52.078;5.070;2023-07-16T04:00:08;101046.53;;;16.64
77599;BMP280;66758;52.078;5.070;2023-07-16T04:02:35;101042.97;;;16.67
77599;BMP280;66758;52.078;5.070;2023-07-16T04:05:01;101050.50;;;16.74
77599;BMP280;66758;52.078;5.070;2023-07-16T04:07:27;101050.91;;;16.76
77599;BMP280;66758;52.078;5.070;2023-07-16T04:09:52;101044.16;;;16.69
77599;BMP280;66758;52.078;5.070;2023-07-16T04:12:18;101043.00;;;16.71
77599;BMP280;66758;52.078;5.070;2023-07-16T04:14:43;101047.72;;;16.74
77599;BMP280;66758;52.078;5.070;2023-07-16T04:17:09;101062.34;;;16.60
77599;BMP280;66758;52.078;5.070;2023-07-16T04:19:34;101047.28;;;16.57
77599;BMP280;66758;52.078;5.070;2023-07-16T04:22:00;101045.72;;;16.63
77599;BMP280;66758;52.078;5.070;2023-07-16T04:24:25;101049.66;;;16.59
77599;BMP280;66758;52.078;5.070;2023-07-16T04:26:55;101058.38;;;16.64
77599;BMP280;66758;52.078;5.070;2023-07-16T04:29:21;101049.72;;;16.66
77599;BMP280;66758;52.078;5.070;2023-07-16T04:31:46;101052.06;;;16.67
77599;BMP280;66758;52.078;5.070;2023-07-16T04:34:12;101050.50;;;16.70
77599;BMP280;66758;52.078;5.070;2023-07-16T04:36:38;101051.69;;;16.76
77599;BMP280;66758;52.078;5.070;2023-07-16T04:39:03;101060.78;;;16.77
77599;BMP280;66758;52.078;5.070;2023-07-16T04:41:29;101062.38;;;16.71
77599;BMP280;66758;52.078;5.070;2023-07-16T04:43:55;101075.00;;;16.72
77599;BMP280;66758;52.078;5.070;2023-07-16T04:46:20;101066.31;;;16.69
77599;BMP280;66758;52.078;5.070;2023-07-16T04:48:46;101069.47;;;16.82
77599;BMP280;66758;52.078;5.070;2023-07-16T04:51:11;101067.13;;;16.81
77599;BMP280;66758;52.078;5.070;2023-07-16T04:53:36;101077.00;;;16.82
77599;BMP280;66758;52.078;5.070;2023-07-16T04:56:02;101067.13;;;16.81
77599;BMP280;66758;52.078;5.070;2023-07-16T04:58:27;101071.06;;;16.80
77599;BMP280;66758;52.078;5.070;2023-07-16T05:00:53;101079.78;;;16.89
77599;BMP280;66758;52.078;5.070;2023-07-16T05:03:18;101070.31;;;16.93
77599;BMP280;66758;52.078;5.070;2023-07-16T05:05:44;101076.63;;;16.94
77599;BMP280;66758;52.078;5.070;2023-07-16T05:08:09;101075.03;;;16.89
77599;BMP280;66758;52.078;5.070;2023-07-16T05:10:34;101081.38;;;16.93
77599;BMP280;66758;52.078;5.070;2023-07-16T05:13:00;101081.41;;;16.97
77599;BMP280;66758;52.078;5.070;2023-07-16T05:15:26;101081.78;;;17.02
77599;BMP280;66758;52.078;5.070;2023-07-16T05:17:52;101097.22;;;17.14
77599;BMP280;66758;52.078;5.070;2023-07-16T05:20:17;101091.31;;;17.19
77599;BMP280;66758;52.078;5.070;2023-07-16T05:22:42;101089.31;;;17.12
77599;BMP280;66758;52.078;5.070;2023-07-16T05:25:08;101094.44;;;17.07
77599;BMP280;66758;52.078;5.070;2023-07-16T05:27:34;101085.78;;;17.16
77599;BMP280;66758;52.078;5.070;2023-07-16T05:30:00;101104.34;;;17.15
77599;BMP280;66758;52.078;5.070;2023-07-16T05:32:26;101110.69;;;17.26
77599;BMP280;66758;52.078;5.070;2023-07-16T05:34:51;101109.13;;;17.25
77599;BMP280;66758;52.078;5.070;2023-07-16T05:37:17;101110.69;;;17.30
77599;BMP280;66758;52.078;5.070;2023-07-16T05:39:42;101115.06;;;17.31
77599;BMP280;66758;52.078;5.070;2023-07-16T05:42:07;101109.13;;;17.36
77599;BMP280;66758;52.078;5.070;2023-07-16T05:44:33;101112.69;;;17.43
77599;BMP280;66758;52.078;5.070;2023-07-16T05:46:58;101129.72;;;17.45
77599;BMP280;66758;52.078;5.070;2023-07-16T05:49:25;101105.56;;;17.46
77599;BMP280;66758;52.078;5.070;2023-07-16T05:51:51;101111.50;;;17.51
77599;BMP280;66758;52.078;5.070;2023-07-16T05:54:17;101118.22;;;17.54
77599;BMP280;66758;52.078;5.070;2023-07-16T05:56:42;101122.19;;;17.57
77599;BMP280;66758;52.078;5.070;2023-07-16T05:59:08;101119.41;;;17.53
77599;BMP280;66758;52.078;5.070;2023-07-16T06:01:33;101134.06;;;17.61
77599;BMP280;66758;52.078;5.070;2023-07-16T06:03:58;101126.91;;;17.63
77599;BMP280;66758;52.078;5.070;2023-07-16T06:06:24;101129.31;;;17.61
77599;BMP280;66758;52.078;5.070;2023-07-16T06:08:49;101139.97;;;17.77
77599;BMP280;66758;52.078;5.070;2023-07-16T06:11:15;101135.22;;;17.74
77599;BMP280;66758;52.078;5.070;2023-07-16T06:13:40;101136.81;;;17.82
77599;BMP280;66758;52.078;5.070;2023-07-16T06:16:06;101139.56;;;17.82
77599;BMP280;66758;52.078;5.070;2023-07-16T06:18:31;101141.56;;;17.88
77599;BMP280;66758;52.078;5.070;2023-07-16T06:20:57;101144.31;;;17.88
77599;BMP280;66758;52.078;5.070;2023-07-16T06:23:22;101129.25;;;17.93
77599;BMP280;66758;52.078;5.070;2023-07-16T06:25:48;101128.88;;;17.98
77599;BMP280;66758;52.078;5.070;2023-07-16T06:28:15;101130.06;;;17.97
77599;BMP280;66758;52.078;5.070;2023-07-16T06:30:41;101151.00;;;18.12
77599;BMP280;66758;52.078;5.070;2023-07-16T06:33:06;101142.31;;;18.07
77599;BMP280;66758;52.078;5.070;2023-07-16T06:35:32;101155.38;;;18.10
77599;BMP280;66758;52.078;5.070;2023-07-16T06:37:58;101157.31;;;18.30
77599;BMP280;66758;52.078;5.070;2023-07-16T06:40:47;101171.94;;;18.34
77599;BMP280;66758;52.078;5.070;2023-07-16T06:43:13;101159.69;;;18.25
77599;BMP280;66758;52.078;5.070;2023-07-16T06:45:38;101164.03;;;18.36
77599;BMP280;66758;52.078;5.070;2023-07-16T06:48:04;101169.53;;;18.43
77599;BMP280;66758;52.078;5.070;2023-07-16T06:50:30;101178.22;;;18.53
77599;BMP280;66758;52.078;5.070;2023-07-16T06:52:55;101166.78;;;18.47
77599;BMP280;66758;52.078;5.070;2023-07-16T06:55:21;101176.16;;;18.78
77599;BMP280;66758;52.078;5.070;2023-07-16T06:57:46;101184.06;;;18.83
77599;BMP280;66758;52.078;5.070;2023-07-16T07:00:12;101186.06;;;18.75
77599;BMP280;66758;52.078;5.070;2023-07-16T07:02:37;101189.72;;;18.58
77599;BMP280;66758;52.078;5.070;2023-07-16T07:05:03;101198.06;;;18.55
77599;BMP280;66758;52.078;5.070;2023-07-16T07:07:28;101181.41;;;18.48
77599;BMP280;66758;52.078;5.070;2023-07-16T07:09:54;101183.38;;;18.58
77599;BMP280;66758;52.078;5.070;2023-07-16T07:12:19;101180.94;;;18.67
77599;BMP280;66758;52.078;5.070;2023-07-16T07:14:47;101209.47;;;18.78
77599;BMP280;66758;52.078;5.070;2023-07-16T07:17:12;101190.31;;;19.01
77599;BMP280;66758;52.078;5.070;2023-07-16T07:19:38;101212.09;;;19.10
77599;BMP280;66758;52.078;5.070;2023-07-16T07:22:03;101218.84;;;19.05
77599;BMP280;66758;52.078;5.070;2023-07-16T07:24:29;101216.44;;;19.07
77599;BMP280;66758;52.078;5.070;2023-07-16T07:26:54;101217.25;;;19.11
77599;BMP280;66758;52.078;5.070;2023-07-16T07:29:20;101221.22;;;19.03
77599;BMP280;66758;52.078;5.070;2023-07-16T07:31:45;101222.47;;;18.95
77599;BMP280;66758;52.078;5.070;2023-07-16T07:34:10;101234.75;;;18.94
77599;BMP280;66758;52.078;5.070;2023-07-16T07:36:36;101231.63;;;18.92
77599;BMP280;66758;52.078;5.070;2023-07-16T07:39:01;101233.91;;;19.11
77599;BMP280;66758;52.078;5.070;2023-07-16T07:41:27;101238.31;;;18.98
77599;BMP280;66758;52.078;5.070;2023-07-16T07:43:52;101239.31;;;19.36
77599;BMP280;66758;52.078;5.070;2023-07-16T07:46:18;101228.56;;;19.42
77599;BMP280;66758;52.078;5.070;2023-07-16T07:48:43;101231.09;;;19.70
77599;BMP280;66758;52.078;5.070;2023-07-16T07:51:08;101231.19;;;19.63
77599;BMP280;66758;52.078;5.070;2023-07-16T07:53:34;101233.97;;;20.07
77599;BMP280;66758;52.078;5.070;2023-07-16T07:55:59;101236.22;;;20.19
77599;BMP280;66758;52.078;5.070;2023-07-16T07:58:25;101238.50;;;19.91
77599;BMP280;66758;52.078;5.070;2023-07-16T08:00:50;101241.53;;;20.07
77599;BMP280;66758;52.078;5.070;2023-07-16T08:03:16;101242.34;;;20.41
77599;BMP280;66758;52.078;5.070;2023-07-16T08:05:41;101233.06;;;20.17
77599;BMP280;66758;52.078;5.070;2023-07-16T08:08:06;101248.44;;;19.88
77599;BMP280;66758;52.078;5.070;2023-07-16T08:10:32;101248.84;;;19.90
77599;BMP280;66758;52.078;5.070;2023-07-16T08:12:57;101249.91;;;20.03
77599;BMP280;66758;52.078;5.070;2023-07-16T08:15:23;101243.34;;;20.24
77599;BMP280;66758;52.078;5.070;2023-07-16T08:17:48;101242.50;;;20.27
77599;BMP280;66758;52.078;5.070;2023-07-16T08:20:14;101255.81;;;20.46
77599;BMP280;66758;52.078;5.070;2023-07-16T08:22:39;101257.44;;;20.44
77599;BMP280;66758;52.078;5.070;2023-07-16T08:25:06;101270.19;;;20.41
77599;BMP280;66758;52.078;5.070;2023-07-16T08:27:32;101271.66;;;20.15
77599;BMP280;66758;52.078;5.070;2023-07-16T08:29:59;101283.91;;;19.77
77599;BMP280;66758;52.078;5.070;2023-07-16T08:32:24;101280.59;;;19.93
77599;BMP280;66758;52.078;5.070;2023-07-16T08:34:50;101289.63;;;20.04
77599;BMP280;66758;52.078;5.070;2023-07-16T08:37:15;101286.53;;;20.36
77599;BMP280;66758;52.078;5.070;2023-07-16T08:39:41;101290.97;;;20.67
77599;BMP280;66758;52.078;5.070;2023-07-16T08:42:09;101282.94;;;20.73
77599;BMP280;66758;52.078;5.070;2023-07-16T08:44:37;101264.13;;;20.80
77599;BMP280;66758;52.078;5.070;2023-07-16T08:47:03;101287.69;;;20.38
77599;BMP280;66758;52.078;5.070;2023-07-16T08:49:30;101278.47;;;20.79
77599;BMP280;66758;52.078;5.070;2023-07-16T08:51:57;101281.91;;;20.59
77599;BMP280;66758;52.078;5.070;2023-07-16T08:54:22;101283.00;;;20.96
77599;BMP280;66758;52.078;5.070;2023-07-16T08:56:48;101286.09;;;21.05
77599;BMP280;66758;52.078;5.070;2023-07-16T08:59:15;101285.53;;;20.87
77599;BMP280;66758;52.078;5.070;2023-07-16T09:01:40;101297.47;;;20.87
77599;BMP280;66758;52.078;5.070;2023-07-16T09:04:07;101295.81;;;21.24
77599;BMP280;66758;52.078;5.070;2023-07-16T09:06:33;101301.75;;;20.65
77599;BMP280;66758;52.078;5.070;2023-07-16T09:08:58;101302.69;;;20.51
77599;BMP280;66758;52.078;5.070;2023-07-16T09:11:24;101306.56;;;20.61
77599;BMP280;66758;52.078;5.070;2023-07-16T09:13:50;101310.81;;;21.03
77599;BMP280;66758;52.078;5.070;2023-07-16T09:16:18;101301.44;;;21.20
77599;BMP280;66758;52.078;5.070;2023-07-16T09:18:44;101300.47;;;21.03
77599;BMP280;66758;52.078;5.070;2023-07-16T09:21:10;101306.66;;;20.84
77599;BMP280;66758;52.078;5.070;2023-07-16T09:23:36;101306.56;;;21.75
77599;BMP280;66758;52.078;5.070;2023-07-16T09:26:02;101307.50;;;21.11
77599;BMP280;66758;52.078;5.070;2023-07-16T09:28:33;101311.72;;;21.50
77599;BMP280;66758;52.078;5.070;2023-07-16T09:31:08;101316.97;;;21.17
77599;BMP280;66758;52.078;5.070;2023-07-16T09:33:34;101319.88;;;20.77
77599;BMP280;66758;52.078;5.070;2023-07-16T09:36:01;101326.22;;;21.11
77599;BMP280;66758;52.078;5.070;2023-07-16T09:38:28;101324.41;;;20.97
77599;BMP280;66758;52.078;5.070;2023-07-16T09:40:55;101320.13;;;20.89
77599;BMP280;66758;52.078;5.070;2023-07-16T09:43:21;101325.91;;;20.75
77599;BMP280;66758;52.078;5.070;2023-07-16T09:45:47;101331.94;;;20.70
77599;BMP280;66758;52.078;5.070;2023-07-16T09:48:12;101331.53;;;20.68
77599;BMP280;66758;52.078;5.070;2023-07-16T09:50:39;101341.03;;;21.61
77599;BMP280;66758;52.078;5.070;2023-07-16T09:53:11;101343.59;;;21.49
77599;BMP280;66758;52.078;5.070;2023-07-16T09:55:37;101345.75;;;22.14
77599;BMP280;66758;52.078;5.070;2023-07-16T09:58:07;101343.56;;;22.69
77599;BMP280;66758;52.078;5.070;2023-07-16T10:00:35;101343.53;;;22.06
77599;BMP280;66758;52.078;5.070;2023-07-16T10:03:08;101341.88;;;21.58
77599;BMP280;66758;52.078;5.070;2023-07-16T10:05:36;101359.63;;;21.14
77599;BMP280;66758;52.078;5.070;2023-07-16T10:08:02;101367.28;;;20.73
77599;BMP280;66758;52.078;5.070;2023-07-16T10:10:43;101353.94;;;20.88
77599;BMP280;66758;52.078;5.070;2023-07-16T10:13:11;101357.56;;;21.18
77599;BMP280;66758;52.078;5.070;2023-07-16T10:15:38;101363.69;;;21.37
77599;BMP280;66758;52.078;5.070;2023-07-16T10:18:05;101361.41;;;21.32
77599;BMP280;66758;52.078;5.070;2023-07-16T10:20:36;101364.75;;;21.73
77599;BMP280;66758;52.078;5.070;2023-07-16T10:23:14;101347.91;;;22.07
77599;BMP280;66758;52.078;5.070;2023-07-16T10:25:56;101375.09;;;21.76
77599;BMP280;66758;52.078;5.070;2023-07-16T10:28:22;101366.38;;;21.97
77599;BMP280;66758;52.078;5.070;2023-07-16T10:30:49;101369.16;;;21.97
77599;BMP280;66758;52.078;5.070;2023-07-16T10:33:15;101375.41;;;21.55
77599;BMP280;66758;52.078;5.070;2023-07-16T10:35:45;101374.59;;;21.81
77599;BMP280;66758;52.078;5.070;2023-07-16T10:38:11;101372.69;;;22.01
77599;BMP280;66758;52.078;5.070;2023-07-16T10:40:44;101365.53;;;22.00
77599;BMP280;66758;52.078;5.070;2023-07-16T10:43:11;101381.69;;;22.12
77599;BMP280;66758;52.078;5.070;2023-07-16T10:45:37;101384.19;;;22.07
77599;BMP280;66758;52.078;5.070;2023-07-16T10:48:02;101391.50;;;21.44
77599;BMP280;66758;52.078;5.070;2023-07-16T10:50:28;101405.81;;;21.99
77599;BMP280;66758;52.078;5.070;2023-07-16T10:52:56;101408.53;;;23.32
77599;BMP280;66758;52.078;5.070;2023-07-16T10:55:22;101393.38;;;23.81
77599;BMP280;66758;52.078;5.070;2023-07-16T10:57:49;101407.53;;;23.58
77599;BMP280;66758;52.078;5.070;2023-07-16T11:00:15;101410.31;;;23.42
77599;BMP280;66758;52.078;5.070;2023-07-16T11:02:42;101408.69;;;24.09
77599;BMP280;66758;52.078;5.070;2023-07-16T11:05:13;101402.28;;;23.76
77599;BMP280;66758;52.078;5.070;2023-07-16T11:07:47;101420.53;;;23.48
77599;BMP280;66758;52.078;5.070;2023-07-16T11:10:15;101423.44;;;22.43
77599;BMP280;66758;52.078;5.070;2023-07-16T11:12:41;101432.66;;;22.17
77599;BMP280;66758;52.078;5.070;2023-07-16T11:15:09;101424.31;;;23.02
77599;BMP280;66758;52.078;5.070;2023-07-16T11:17:37;101460.44;;;22.93
77599;BMP280;66758;52.078;5.070;2023-07-16T11:20:03;101428.31;;;22.82
77599;BMP280;66758;52.078;5.070;2023-07-16T11:22:32;101449.47;;;23.42
77599;BMP280;66758;52.078;5.070;2023-07-16T11:24:57;101441.09;;;23.02
77599;BMP280;66758;52.078;5.070;2023-07-16T11:27:25;101441.28;;;22.72
77599;BMP280;66758;52.078;5.070;2023-07-16T11:29:53;101443.22;;;22.52
77599;BMP280;66758;52.078;5.070;2023-07-16T11:34:57;101439.09;;;22.60
77599;BMP280;66758;52.078;5.070;2023-07-16T11:37:28;101440.78;;;22.97
77599;BMP280;66758;52.078;5.070;2023-07-16T11:40:07;101440.22;;;23.25
77599;BMP280;66758;52.078;5.070;2023-07-16T11:42:34;101445.72;;;23.29
77599;BMP280;66758;52.078;5.070;2023-07-16T11:45:00;101441.16;;;24.23
77599;BMP280;66758;52.078;5.070;2023-07-16T11:47:27;101435.66;;;23.87
77599;BMP280;66758;52.078;5.070;2023-07-16T11:49:52;101444.16;;;24.16
77599;BMP280;66758;52.078;5.070;2023-07-16T11:52:20;101437.84;;;24.12
77599;BMP280;66758;52.078;5.070;2023-07-16T11:54:46;101442.03;;;23.51
77599;BMP280;66758;52.078;5.070;2023-07-16T11:57:12;101443.25;;;23.86
77599;BMP280;66758;52.078;5.070;2023-07-16T11:59:37;101439.19;;;24.52
77599;BMP280;66758;52.078;5.070;2023-07-16T12:02:04;101431.72;;;26.04
77599;BMP280;66758;52.078;5.070;2023-07-16T12:04:30;101436.31;;;25.76
77599;BMP280;66758;52.078;5.070;2023-07-16T12:06:55;101440.53;;;25.93
77599;BMP280;66758;52.078;5.070;2023-07-16T12:09:21;101440.78;;;26.55
77599;BMP280;66758;52.078;5.070;2023-07-16T12:11:48;101433.66;;;27.06
77599;BMP280;66758;52.078;5.070;2023-07-16T12:14:14;101421.09;;;26.98
77599;BMP280;66758;52.078;5.070;2023-07-16T12:16:39;101439.88;;;26.80
77599;BMP280;66758;52.078;5.070;2023-07-16T12:19:08;101443.38;;;28.49
77599;BMP280;66758;52.078;5.070;2023-07-16T12:21:34;101434.09;;;27.36
77599;BMP280;66758;52.078;5.070;2023-07-16T12:24:00;101448.72;;;27.21
77599;BMP280;66758;52.078;5.070;2023-07-16T12:26:26;101440.00;;;26.33
77599;BMP280;66758;52.078;5.070;2023-07-16T12:28:52;101433.97;;;25.37
77599;BMP280;66758;52.078;5.070;2023-07-16T12:31:17;101450.19;;;26.39
77599;BMP280;66758;52.078;5.070;2023-07-16T12:33:43;101435.66;;;25.94
77599;BMP280;66758;52.078;5.070;2023-07-16T12:36:09;101438.38;;;26.66
77599;BMP280;66758;52.078;5.070;2023-07-16T12:38:41;101464.28;;;25.80
77599;BMP280;66758;52.078;5.070;2023-07-16T12:41:07;101452.66;;;25.90
77599;BMP280;66758;52.078;5.070;2023-07-16T12:43:33;101456.81;;;24.81
77599;BMP280;66758;52.078;5.070;2023-07-16T12:46:03;101466.91;;;24.79
77599;BMP280;66758;52.078;5.070;2023-07-16T12:48:31;101453.50;;;24.99
77599;BMP280;66758;52.078;5.070;2023-07-16T12:50:57;101462.69;;;25.91
77599;BMP280;66758;52.078;5.070;2023-07-16T12:53:24;101455.09;;;26.01
77599;BMP280;66758;52.078;5.070;2023-07-16T12:55:49;101476.56;;;24.61
77599;BMP280;66758;52.078;5.070;2023-07-16T12:58:15;101474.56;;;24.30
77599;BMP280;66758;52.078;5.070;2023-07-16T13:00:41;101471.56;;;25.64
77599;BMP280;66758;52.078;5.070;2023-07-16T13:03:06;101480.56;;;25.05
77599;BMP280;66758;52.078;5.070;2023-07-16T13:05:35;101478.25;;;24.43
77599;BMP280;66758;52.078;5.070;2023-07-16T13:08:00;101479.31;;;24.33
77599;BMP280;66758;52.078;5.070;2023-07-16T13:10:26;101484.03;;;24.03
77599;BMP280;66758;52.078;5.070;2023-07-16T13:12:53;101482.34;;;24.71
77599;BMP280;66758;52.078;5.070;2023-07-16T13:15:18;101481.53;;;26.03
77599;BMP280;66758;52.078;5.070;2023-07-16T13:17:44;101488.19;;;25.59
77599;BMP280;66758;52.078;5.070;2023-07-16T13:20:11;101499.84;;;24.58
77599;BMP280;66758;52.078;5.070;2023-07-16T13:22:36;101492.94;;;23.98
77599;BMP280;66758;52.078;5.070;2023-07-16T13:25:02;101490.16;;;24.15
77599;BMP280;66758;52.078;5.070;2023-07-16T13:27:28;101492.38;;;24.84
77599;BMP280;66758;52.078;5.070;2023-07-16T13:29:53;101497.84;;;23.94
77599;BMP280;66758;52.078;5.070;2023-07-16T13:32:19;101499.34;;;23.63
77599;BMP280;66758;52.078;5.070;2023-07-16T13:34:45;101501.16;;;23.34
77599;BMP280;66758;52.078;5.070;2023-07-16T13:37:11;101497.41;;;24.12
77599;BMP280;66758;52.078;5.070;2023-07-16T13:39:36;101498.91;;;24.17
77599;BMP280;66758;52.078;5.070;2023-07-16T13:42:02;101489.72;;;24.00
77599;BMP280;66758;52.078;5.070;2023-07-16T13:44:28;101488.94;;;24.32
77599;BMP280;66758;52.078;5.070;2023-07-16T13:46:53;101494.13;;;25.61
77599;BMP280;66758;52.078;5.070;2023-07-16T13:49:19;101491.22;;;25.90
77599;BMP280;66758;52.078;5.070;2023-07-16T13:51:44;101470.63;;;26.40
77599;BMP280;66758;52.078;5.070;2023-07-16T13:54:11;101482.75;;;27.14
77599;BMP280;66758;52.078;5.070;2023-07-16T13:56:37;101477.09;;;27.05
77599;BMP280;66758;52.078;5.070;2023-07-16T13:59:02;101482.28;;;26.16
77599;BMP280;66758;52.078;5.070;2023-07-16T14:01:29;101486.00;;;25.38